createdAt,value
2024-02-03T00:00:29.243Z,33.16
2024-02-03T00:01:00.883Z,33.39
2024-02-03T00:01:32.441Z,32.66
2024-02-03T00:02:03.919Z,33.02
2024-02-03T00:02:35.386Z,33.62
2024-02-03T00:03:06.834Z,33.35
2024-02-03T00:03:38.372Z,33.22
2024-02-03T00:04:09.944Z,32.98
2024-02-03T00:04:41.496Z,33.24
2024-02-03T00:05:12.949Z,33.21
2024-02-03T00:05:44.457Z,33.36
2024-02-03T00:06:15.996Z,33.25
2024-02-03T00:06:47.529Z,33.39
2024-02-03T00:07:19.194Z,33.07
2024-02-03T00:07:50.693Z,33.07
2024-02-03T00:08:22.134Z,33.41
2024-02-03T00:08:53.615Z,33.15
2024-02-03T00:09:25.072Z,33.20
2024-02-03T00:09:56.663Z,32.95
2024-02-03T00:10:28.306Z,32.96
2024-02-03T00:10:59.756Z,33.55
2024-02-03T00:11:31.222Z,33.14
2024-02-03T00:12:02.669Z,33.58
2024-02-03T00:12:34.167Z,33.06
2024-02-03T00:13:05.629Z,33.50
2024-02-03T00:13:37.067Z,33.67
2024-02-03T00:14:08.513Z,33.45
2024-02-03T00:14:40.029Z,33.20
2024-02-03T00:15:11.590Z,33.14
2024-02-03T00:15:43.082Z,33.64
2024-02-03T00:16:14.566Z,33.57
2024-02-03T00:16:46.001Z,33.53
2024-02-03T00:17:17.462Z,33.08
2024-02-03T00:17:48.970Z,33.51
2024-02-03T00:18:20.699Z,33.13
2024-02-03T00:18:52.347Z,33.83
2024-02-03T00:19:24.000Z,33.09
2024-02-03T00:19:55.669Z,33.47
2024-02-03T00:20:27.113Z,33.81
2024-02-03T00:20:58.542Z,33.19
2024-02-03T00:21:30.079Z,33.58
2024-02-03T00:22:01.549Z,33.51
2024-02-03T00:22:32.998Z,33.42
2024-02-03T00:23:04.455Z,33.02
2024-02-03T00:23:35.898Z,33.23
2024-02-03T00:24:07.603Z,33.32
2024-02-03T00:24:39.206Z,33.15
2024-02-03T00:25:10.693Z,33.33
2024-02-03T00:25:42.151Z,33.40
2024-02-03T00:26:13.590Z,33.29
2024-02-03T00:26:45.033Z,33.50
2024-02-03T00:27:16.542Z,33.58
2024-02-03T00:27:48.138Z,33.56
2024-02-03T00:28:19.622Z,33.53
2024-02-03T00:28:51.141Z,33.19
2024-02-03T00:29:22.679Z,33.19
2024-02-03T00:29:54.246Z,33.56
2024-02-03T00:30:25.768Z,33.26
2024-02-03T00:30:57.300Z,33.50
2024-02-03T00:31:28.793Z,33.48
2024-02-03T00:32:00.260Z,33.48
2024-02-03T00:32:31.749Z,33.19
2024-02-03T00:33:03.285Z,33.47
2024-02-03T00:33:34.924Z,33.43
2024-02-03T00:34:06.644Z,33.46
2024-02-03T00:34:38.320Z,33.28
2024-02-03T00:35:09.876Z,33.50
2024-02-03T00:35:41.311Z,33.48
2024-02-03T00:36:12.764Z,33.78
2024-02-03T00:36:44.334Z,33.35
2024-02-03T00:37:15.815Z,33.39
2024-02-03T00:37:47.274Z,33.43
2024-02-03T00:38:18.789Z,33.96
2024-02-03T00:38:50.246Z,33.31
2024-02-03T00:39:21.721Z,33.89
2024-02-03T00:39:53.216Z,33.31
2024-02-03T00:40:24.701Z,33.65
2024-02-03T00:40:56.141Z,33.70
2024-02-03T00:41:27.671Z,33.33
2024-02-03T00:41:59.188Z,33.51
2024-02-03T00:42:30.698Z,33.56
2024-02-03T00:43:02.343Z,33.61
2024-02-03T00:43:33.815Z,33.75
2024-02-03T00:44:05.277Z,33.78
2024-02-03T00:44:36.730Z,33.60
2024-02-03T00:45:08.192Z,33.91
2024-02-03T00:45:39.730Z,33.83
2024-02-03T00:46:11.216Z,33.32
2024-02-03T00:46:42.672Z,33.63
2024-02-03T00:47:14.124Z,33.16
2024-02-03T00:47:45.723Z,33.34
2024-02-03T00:48:17.511Z,33.63
2024-02-03T00:48:49.206Z,33.56
2024-02-03T00:49:20.855Z,33.62
2024-02-03T00:49:52.581Z,33.92
2024-02-03T00:50:24.100Z,34.07
2024-02-03T00:50:55.561Z,33.70
2024-02-03T00:51:27.084Z,33.72
2024-02-03T00:51:58.551Z,33.63
2024-02-03T00:52:30.058Z,33.47
2024-02-03T00:53:01.610Z,33.91
2024-02-03T00:53:33.042Z,33.38
2024-02-03T00:54:04.492Z,33.90
2024-02-03T00:54:35.996Z,33.62
2024-02-03T00:55:07.485Z,33.57
2024-02-03T00:55:38.918Z,33.98
2024-02-03T00:56:10.360Z,33.44
2024-02-03T00:56:41.797Z,33.76
2024-02-03T00:57:13.341Z,33.83
2024-02-03T00:57:44.859Z,33.97
2024-02-03T00:58:16.388Z,33.98
2024-02-03T00:58:47.882Z,34.03
2024-02-03T00:59:19.321Z,33.92
2024-02-03T00:59:50.763Z,33.76
2024-02-03T01:00:22.217Z,33.81
2024-02-03T01:00:53.779Z,34.00
2024-02-03T01:01:25.367Z,33.58
2024-02-03T01:01:56.879Z,33.72
2024-02-03T01:02:28.415Z,33.93
2024-02-03T01:02:59.895Z,33.84
2024-02-03T01:03:31.421Z,33.76
2024-02-03T01:04:03.081Z,34.07
2024-02-03T01:04:34.627Z,33.96
2024-02-03T01:05:06.076Z,33.48
2024-02-03T01:05:37.540Z,33.83
2024-02-03T01:06:09.101Z,34.13
2024-02-03T01:06:40.734Z,33.64
2024-02-03T01:07:12.289Z,33.87
2024-02-03T01:07:43.734Z,33.49
2024-02-03T01:08:15.183Z,33.65
2024-02-03T01:08:46.624Z,33.71
2024-02-03T01:09:18.180Z,33.80
2024-02-03T01:09:49.721Z,33.79
2024-02-03T01:10:21.200Z,34.06
2024-02-03T01:10:52.647Z,33.91
2024-02-03T01:11:24.090Z,33.93
2024-02-03T01:11:55.571Z,33.56
2024-02-03T01:12:27.199Z,34.16
2024-02-03T01:12:58.791Z,33.91
2024-02-03T01:13:30.311Z,33.54
2024-02-03T01:14:01.790Z,33.82
2024-02-03T01:14:33.238Z,33.64
2024-02-03T01:15:04.678Z,33.86
2024-02-03T01:15:36.162Z,33.63
2024-02-03T01:16:07.735Z,34.05
2024-02-03T01:16:39.195Z,33.85
2024-02-03T01:17:10.667Z,34.16
2024-02-03T01:17:42.124Z,33.80
2024-02-03T01:18:13.667Z,33.60
2024-02-03T01:18:45.309Z,33.59
2024-02-03T01:19:16.921Z,34.34
2024-02-03T01:19:48.602Z,33.33
2024-02-03T01:20:20.145Z,34.17
2024-02-03T01:20:51.631Z,33.59
2024-02-03T01:21:23.092Z,33.58
2024-02-03T01:21:54.607Z,34.06
2024-02-03T01:22:26.091Z,33.75
2024-02-03T01:22:57.536Z,33.84
2024-02-03T01:23:28.975Z,33.83
2024-02-03T01:24:00.435Z,34.05
2024-02-03T01:24:31.952Z,34.06
2024-02-03T01:25:03.466Z,34.11
2024-02-03T01:25:34.993Z,34.01
2024-02-03T01:26:06.464Z,33.87
2024-02-03T01:26:37.921Z,33.73
2024-02-03T01:27:09.398Z,34.29
2024-02-03T01:27:40.889Z,34.06
2024-02-03T01:28:12.416Z,33.70
2024-02-03T01:28:43.850Z,34.09
2024-02-03T01:29:15.284Z,33.94
2024-02-03T01:29:46.733Z,33.83
2024-02-03T01:30:18.321Z,33.92
2024-02-03T01:30:49.928Z,33.91
2024-02-03T01:31:21.490Z,33.67
2024-02-03T01:31:52.951Z,33.96
2024-02-03T01:32:24.389Z,33.90
2024-02-03T01:32:55.837Z,34.23
2024-02-03T01:33:27.394Z,33.91
2024-02-03T01:33:59.019Z,33.92
2024-02-03T01:34:30.633Z,34.25
2024-02-03T01:35:02.370Z,34.14
2024-02-03T01:35:33.959Z,34.29
2024-02-03T01:36:05.516Z,34.15
2024-02-03T01:36:37.017Z,34.14
2024-02-03T01:37:08.494Z,33.70
2024-02-03T01:37:39.935Z,33.65
2024-02-03T01:38:11.367Z,33.84
2024-02-03T01:38:42.805Z,34.37
2024-02-03T01:39:14.316Z,33.90
2024-02-03T01:39:45.894Z,34.10
2024-02-03T01:40:17.418Z,34.16
2024-02-03T01:40:48.874Z,34.07
2024-02-03T01:41:20.394Z,33.99
2024-02-03T01:41:51.850Z,34.04
2024-02-03T01:42:23.296Z,34.22
2024-02-03T01:42:54.760Z,33.71
2024-02-03T01:43:26.213Z,33.62
2024-02-03T01:43:57.678Z,34.31
2024-02-03T01:44:29.213Z,34.25
2024-02-03T01:45:00.672Z,34.02
2024-02-03T01:45:32.226Z,34.10
2024-02-03T01:46:03.749Z,34.11
2024-02-03T01:46:35.189Z,33.94
2024-02-03T01:47:06.661Z,34.38
2024-02-03T01:47:38.157Z,34.07
2024-02-03T01:48:09.688Z,34.00
2024-02-03T01:48:41.378Z,33.93
2024-02-03T01:49:13.003Z,33.94
2024-02-03T01:49:44.764Z,34.04
2024-02-03T01:50:16.280Z,34.04
2024-02-03T01:50:47.724Z,34.17
2024-02-03T01:51:19.220Z,34.14
2024-02-03T01:51:50.694Z,34.17
2024-02-03T01:52:22.221Z,33.77
2024-02-03T01:52:53.680Z,34.05
2024-02-03T01:53:25.116Z,34.22
2024-02-03T01:53:56.580Z,33.72
2024-02-03T01:54:28.140Z,34.40
2024-02-03T01:54:59.622Z,34.09
2024-02-03T01:55:31.071Z,33.98
2024-02-03T01:56:02.537Z,34.07
2024-02-03T01:56:33.987Z,33.83
2024-02-03T01:57:05.560Z,34.02
2024-02-03T01:57:37.071Z,34.11
2024-02-03T01:58:08.529Z,34.17
2024-02-03T01:58:40.050Z,34.21
2024-02-03T01:59:11.567Z,34.07
2024-02-03T01:59:43.043Z,34.06
2024-02-03T02:00:14.572Z,33.85
2024-02-03T02:00:46.133Z,34.08
2024-02-03T02:01:17.758Z,34.44
2024-02-03T02:01:49.289Z,34.08
2024-02-03T02:02:20.751Z,34.20
2024-02-03T02:02:52.278Z,33.89
2024-02-03T02:03:23.942Z,34.45
2024-02-03T02:03:55.500Z,33.87
2024-02-03T02:04:27.140Z,33.97
2024-02-03T02:04:58.700Z,34.32
2024-02-03T02:05:30.225Z,33.83
2024-02-03T02:06:01.730Z,33.79
2024-02-03T02:06:33.343Z,34.17
2024-02-03T02:07:04.882Z,34.21
2024-02-03T02:07:36.354Z,34.04
2024-02-03T02:08:07.887Z,34.38
2024-02-03T02:08:39.440Z,34.45
2024-02-03T02:09:10.883Z,34.09
2024-02-03T02:09:42.577Z,34.13
2024-02-03T02:10:14.090Z,34.45
2024-02-03T02:10:45.524Z,34.25
2024-02-03T02:11:16.974Z,34.36
2024-02-03T02:11:48.433Z,33.93
2024-02-03T02:12:19.899Z,33.85
2024-02-03T02:12:51.381Z,33.87
2024-02-03T02:13:22.885Z,34.00
2024-02-03T02:13:54.330Z,34.50
2024-02-03T02:14:25.775Z,34.30
2024-02-03T02:14:57.235Z,34.38
2024-02-03T02:15:28.723Z,34.22
2024-02-03T02:16:00.273Z,34.02
2024-02-03T02:16:31.744Z,33.98
2024-02-03T02:17:03.189Z,34.08
2024-02-03T02:17:34.852Z,34.51
2024-02-03T02:18:06.607Z,34.23
2024-02-03T02:18:38.184Z,34.13
2024-02-03T02:19:09.780Z,34.24
2024-02-03T02:19:41.388Z,34.42
2024-02-03T02:20:12.883Z,34.18
2024-02-03T02:20:44.477Z,34.62
2024-02-03T02:21:15.960Z,34.57
2024-02-03T02:21:47.539Z,34.18
2024-02-03T02:22:19.136Z,34.03
2024-02-03T02:22:50.571Z,34.28
2024-02-03T02:23:22.008Z,34.12
2024-02-03T02:23:53.461Z,34.32
2024-02-03T02:24:24.951Z,34.43
2024-02-03T02:24:56.439Z,34.49
2024-02-03T02:25:27.880Z,34.31
2024-02-03T02:25:59.323Z,34.48
2024-02-03T02:26:30.766Z,34.10
2024-02-03T02:27:02.356Z,34.60
2024-02-03T02:27:33.864Z,34.41
2024-02-03T02:28:05.318Z,34.16
2024-02-03T02:28:36.769Z,34.40
2024-02-03T02:29:08.245Z,34.41
2024-02-03T02:29:39.697Z,34.06
2024-02-03T02:30:11.172Z,34.17
2024-02-03T02:30:42.655Z,34.75
2024-02-03T02:31:14.100Z,34.36
2024-02-03T02:31:45.595Z,34.49
2024-02-03T02:32:17.141Z,34.55
2024-02-03T02:32:48.726Z,34.35
2024-02-03T02:33:20.503Z,33.84
2024-02-03T02:33:52.231Z,34.27
2024-02-03T02:34:23.853Z,34.29
2024-02-03T02:34:55.405Z,34.35
2024-02-03T02:35:26.849Z,34.36
2024-02-03T02:35:58.300Z,34.14
2024-02-03T02:36:29.865Z,33.98
2024-02-03T02:37:01.345Z,34.08
2024-02-03T02:37:32.786Z,34.44
2024-02-03T02:38:04.229Z,34.47
2024-02-03T02:38:35.672Z,34.08
2024-02-03T02:39:07.144Z,34.57
2024-02-03T02:39:38.621Z,34.34
2024-02-03T02:40:10.186Z,34.27
2024-02-03T02:40:41.742Z,34.42
2024-02-03T02:41:13.235Z,34.69
2024-02-03T02:41:44.719Z,34.06
2024-02-03T02:42:16.162Z,34.29
2024-02-03T02:42:47.660Z,34.59
2024-02-03T02:43:19.112Z,34.13
2024-02-03T02:43:50.549Z,34.40
2024-02-03T02:44:22.006Z,34.74
2024-02-03T02:44:53.442Z,34.37
2024-02-03T02:45:24.910Z,34.00
2024-02-03T02:45:56.427Z,34.46
2024-02-03T02:46:27.978Z,34.54
2024-02-03T02:46:59.420Z,34.29
2024-02-03T02:47:30.891Z,34.25
2024-02-03T02:48:02.473Z,34.48
2024-02-03T02:48:34.030Z,34.48
2024-02-03T02:49:05.616Z,34.14
2024-02-03T02:49:37.387Z,34.39
2024-02-03T02:50:08.964Z,34.75
2024-02-03T02:50:40.463Z,34.22
2024-02-03T02:51:12.005Z,34.48
2024-02-03T02:51:43.497Z,34.31
2024-02-03T02:52:14.961Z,34.27
2024-02-03T02:52:46.515Z,34.31
2024-02-03T02:53:17.946Z,34.19
2024-02-03T02:53:49.399Z,34.34
2024-02-03T02:54:20.852Z,34.47
2024-02-03T02:54:52.466Z,34.20
2024-02-03T02:55:24.108Z,34.19
2024-02-03T02:55:57.186Z,34.50
2024-02-03T02:56:29.669Z,34.59
2024-02-03T02:57:01.150Z,34.39
2024-02-03T02:57:32.636Z,34.34
2024-02-03T02:58:04.128Z,34.36
2024-02-03T02:58:35.560Z,34.40
2024-02-03T02:59:06.989Z,34.68
2024-02-03T02:59:38.426Z,34.67
2024-02-03T03:00:09.988Z,34.44
2024-02-03T03:00:41.600Z,34.48
2024-02-03T03:01:13.228Z,34.33
2024-02-03T03:01:44.764Z,34.54
2024-02-03T03:02:16.233Z,34.53
2024-02-03T03:02:47.682Z,34.37
2024-02-03T03:03:19.249Z,34.43
2024-02-03T03:03:50.806Z,34.26
2024-02-03T03:04:22.552Z,34.39
2024-02-03T03:04:54.150Z,34.39
2024-02-03T03:05:25.601Z,34.39
2024-02-03T03:05:57.044Z,34.31
2024-02-03T03:06:28.519Z,34.63
2024-02-03T03:06:59.971Z,34.81
2024-02-03T03:07:31.431Z,34.33
2024-02-03T03:08:02.946Z,34.62
2024-02-03T03:08:34.460Z,34.62
2024-02-03T03:09:05.902Z,34.79
2024-02-03T03:09:37.475Z,34.29
2024-02-03T03:10:09.001Z,34.47
2024-02-03T03:10:40.457Z,34.20
2024-02-03T03:11:11.899Z,34.80
2024-02-03T03:11:43.345Z,34.62
2024-02-03T03:12:14.814Z,34.69
2024-02-03T03:12:46.330Z,34.76
2024-02-03T03:13:17.827Z,34.66
2024-02-03T03:13:49.284Z,34.71
2024-02-03T03:14:20.757Z,34.53
2024-02-03T03:14:52.231Z,34.70
2024-02-03T03:15:23.816Z,34.67
2024-02-03T03:15:55.332Z,34.56
2024-02-03T03:16:26.800Z,34.68
2024-02-03T03:16:58.277Z,34.67
2024-02-03T03:17:29.770Z,35.04
2024-02-03T03:18:01.332Z,34.69
2024-02-03T03:18:32.938Z,34.88
2024-02-03T03:19:04.690Z,34.82
2024-02-03T03:19:36.454Z,34.94
2024-02-03T03:20:08.135Z,34.55
2024-02-03T03:20:39.628Z,34.53
2024-02-03T03:21:11.083Z,34.97
2024-02-03T03:21:42.659Z,34.59
2024-02-03T03:22:14.176Z,34.95
2024-02-03T03:22:45.624Z,34.99
2024-02-03T03:23:17.123Z,34.68
2024-02-03T03:23:48.765Z,35.05
2024-02-03T03:24:20.339Z,34.68
2024-02-03T03:24:51.825Z,34.72
2024-02-03T03:25:23.298Z,35.13
2024-02-03T03:25:54.739Z,34.89
2024-02-03T03:26:26.189Z,35.00
2024-02-03T03:26:57.696Z,35.16
2024-02-03T03:27:29.227Z,35.19
2024-02-03T03:28:00.713Z,34.79
2024-02-03T03:28:32.496Z,34.58
2024-02-03T03:29:03.951Z,34.89
2024-02-03T03:29:35.385Z,34.92
2024-02-03T03:30:06.904Z,34.90
2024-02-03T03:30:38.480Z,34.78
2024-02-03T03:31:09.988Z,34.93
2024-02-03T03:31:41.428Z,35.35
2024-02-03T03:32:12.890Z,35.13
2024-02-03T03:32:44.366Z,34.90
2024-02-03T03:33:16.100Z,34.94
2024-02-03T03:33:47.793Z,35.08
2024-02-03T03:34:19.442Z,35.38
2024-02-03T03:34:51.074Z,35.36
2024-02-03T03:35:22.599Z,34.94
2024-02-03T03:35:54.045Z,35.14
2024-02-03T03:36:25.550Z,35.37
2024-02-03T03:36:57.009Z,34.81
2024-02-03T03:37:28.459Z,35.32
2024-02-03T03:38:00.008Z,35.32
2024-02-03T03:38:31.531Z,35.20
2024-02-03T03:39:03.024Z,35.32
2024-02-03T03:39:34.492Z,35.27
2024-02-03T03:40:06.025Z,35.31
2024-02-03T03:40:37.474Z,35.41
2024-02-03T03:41:08.912Z,35.45
2024-02-03T03:41:40.357Z,35.35
2024-02-03T03:42:11.832Z,35.04
2024-02-03T03:42:43.423Z,35.29
2024-02-03T03:43:14.965Z,35.21
2024-02-03T03:43:46.410Z,35.38
2024-02-03T03:44:17.860Z,35.23
2024-02-03T03:44:49.320Z,34.92
2024-02-03T03:45:20.789Z,35.19
2024-02-03T03:45:52.315Z,35.47
2024-02-03T03:46:23.763Z,35.47
2024-02-03T03:46:55.201Z,35.69
2024-02-03T03:47:26.809Z,35.65
2024-02-03T03:47:58.434Z,35.33
2024-02-03T03:48:29.959Z,35.19
2024-02-03T03:49:01.517Z,35.48
2024-02-03T03:49:33.059Z,35.35
2024-02-03T03:50:04.753Z,35.58
2024-02-03T03:50:36.205Z,35.59
2024-02-03T03:51:07.666Z,35.44
2024-02-03T03:51:39.147Z,35.00
2024-02-03T03:52:10.708Z,35.21
2024-02-03T03:52:42.196Z,35.25
2024-02-03T03:53:13.632Z,35.19
2024-02-03T03:53:45.064Z,35.39
2024-02-03T03:54:16.521Z,35.62
2024-02-03T03:54:48.046Z,35.61
2024-02-03T03:55:19.501Z,35.05
2024-02-03T03:55:50.947Z,34.98
2024-02-03T03:56:22.384Z,35.28
2024-02-03T03:56:53.893Z,35.32
2024-02-03T03:57:25.405Z,35.61
2024-02-03T03:57:56.907Z,35.03
2024-02-03T03:58:28.357Z,35.34
2024-02-03T03:58:59.842Z,35.39
2024-02-03T03:59:31.304Z,35.45
2024-02-03T04:00:02.742Z,35.19
2024-02-03T04:00:34.191Z,35.21
2024-02-03T04:01:05.848Z,35.29
2024-02-03T04:01:37.575Z,35.46
2024-02-03T04:02:09.061Z,35.90
2024-02-03T04:02:40.510Z,35.78
2024-02-03T04:03:11.999Z,35.21
2024-02-03T04:03:43.479Z,35.20
2024-02-03T04:04:14.933Z,35.35
2024-02-03T04:04:46.415Z,35.46
2024-02-03T04:05:17.865Z,35.41
2024-02-03T04:05:49.357Z,35.41
2024-02-03T04:06:21.029Z,35.32
2024-02-03T04:06:52.700Z,34.99
2024-02-03T04:07:24.172Z,35.60
2024-02-03T04:07:55.623Z,35.46
2024-02-03T04:08:27.070Z,35.31
2024-02-03T04:08:58.508Z,35.06
2024-02-03T04:09:29.965Z,35.22
2024-02-03T04:10:01.423Z,35.72
2024-02-03T04:10:32.891Z,35.36
2024-02-03T04:11:04.406Z,35.14
2024-02-03T04:11:35.937Z,35.13
2024-02-03T04:12:07.421Z,35.15
2024-02-03T04:12:38.886Z,35.12
2024-02-03T04:13:10.336Z,35.64
2024-02-03T04:13:41.773Z,35.27
2024-02-03T04:14:13.232Z,35.06
2024-02-03T04:14:44.683Z,35.35
2024-02-03T04:15:16.142Z,35.59
2024-02-03T04:15:47.719Z,35.45
2024-02-03T04:16:19.303Z,35.41
2024-02-03T04:16:50.756Z,35.47
2024-02-03T04:17:22.202Z,35.51
2024-02-03T04:17:53.638Z,35.61
2024-02-03T04:18:25.228Z,35.28
2024-02-03T04:18:56.875Z,35.33
2024-02-03T04:19:28.616Z,35.45
2024-02-03T04:20:00.432Z,35.48
2024-02-03T04:20:32.096Z,35.51
2024-02-03T04:21:03.621Z,35.44
2024-02-03T04:21:35.105Z,35.35
2024-02-03T04:22:06.552Z,35.71
2024-02-03T04:22:37.990Z,35.67
2024-02-03T04:23:09.430Z,35.50
2024-02-03T04:23:40.881Z,35.70
2024-02-03T04:24:12.381Z,35.24
2024-02-03T04:24:43.940Z,35.36
2024-02-03T04:25:15.414Z,35.54
2024-02-03T04:25:46.888Z,35.80
2024-02-03T04:26:18.388Z,35.78
2024-02-03T04:26:49.849Z,35.45
2024-02-03T04:27:21.318Z,35.53
2024-02-03T04:27:52.839Z,35.43
2024-02-03T04:28:24.303Z,35.34
2024-02-03T04:28:55.737Z,35.50
2024-02-03T04:29:27.206Z,35.59
2024-02-03T04:29:58.713Z,35.47
2024-02-03T04:30:30.358Z,35.73
2024-02-03T04:31:01.898Z,35.53
2024-02-03T04:31:33.362Z,35.36
2024-02-03T04:32:04.811Z,35.45
2024-02-03T04:32:36.279Z,35.46
2024-02-03T04:33:07.987Z,35.45
2024-02-03T04:33:39.557Z,35.43
2024-02-03T04:34:11.336Z,35.45
2024-02-03T04:34:42.965Z,35.45
2024-02-03T04:35:14.541Z,35.58
2024-02-03T04:35:45.980Z,35.34
2024-02-03T04:36:17.427Z,35.27
2024-02-03T04:36:49.005Z,35.42
2024-02-03T04:37:20.557Z,35.05
2024-02-03T04:37:52.012Z,35.28
2024-02-03T04:38:23.461Z,35.09
2024-02-03T04:38:54.906Z,35.31
2024-02-03T04:39:26.452Z,35.42
2024-02-03T04:39:57.925Z,35.19
2024-02-03T04:40:29.375Z,35.16
2024-02-03T04:41:00.816Z,35.17
2024-02-03T04:41:32.264Z,35.50
2024-02-03T04:42:03.718Z,34.92
2024-02-03T04:42:35.197Z,35.03
2024-02-03T04:43:06.655Z,35.00
2024-02-03T04:43:38.086Z,35.50
2024-02-03T04:44:09.598Z,35.42
2024-02-03T04:44:41.117Z,35.23
2024-02-03T04:45:12.650Z,35.50
2024-02-03T04:45:44.179Z,35.23
2024-02-03T04:46:15.678Z,35.09
2024-02-03T04:46:48.874Z,35.54
2024-02-03T04:47:20.544Z,35.30
2024-02-03T04:47:52.154Z,35.39
2024-02-03T04:48:23.789Z,35.26
2024-02-03T04:48:55.483Z,35.53
2024-02-03T04:49:27.178Z,35.16
2024-02-03T04:49:58.745Z,35.69
2024-02-03T04:50:30.235Z,35.79
2024-02-03T04:51:01.728Z,35.10
2024-02-03T04:51:33.261Z,35.27
2024-02-03T04:52:04.726Z,35.08
2024-02-03T04:52:36.313Z,35.44
2024-02-03T04:53:07.757Z,35.32
2024-02-03T04:53:39.285Z,35.22
2024-02-03T04:54:10.779Z,35.10
2024-02-03T04:54:42.254Z,35.43
2024-02-03T04:55:13.714Z,35.08
2024-02-03T04:55:45.153Z,35.00
2024-02-03T04:56:16.608Z,35.46
2024-02-03T04:56:48.046Z,34.95
2024-02-03T04:57:19.506Z,35.38
2024-02-03T04:57:51.120Z,35.59
2024-02-03T04:58:22.660Z,35.11
2024-02-03T04:58:54.142Z,35.02
2024-02-03T04:59:25.580Z,35.47
2024-02-03T04:59:57.011Z,34.97
2024-02-03T05:00:28.464Z,35.25
2024-02-03T05:01:00.012Z,35.19
2024-02-03T05:01:31.556Z,35.56
2024-02-03T05:02:03.022Z,35.09
2024-02-03T05:02:34.480Z,35.02
2024-02-03T05:03:06.045Z,35.63
2024-02-03T05:03:37.635Z,35.19
2024-02-03T05:04:09.245Z,35.48
2024-02-03T05:04:40.966Z,35.51
2024-02-03T05:05:12.481Z,35.04
2024-02-03T05:05:43.957Z,35.25
2024-02-03T05:06:15.508Z,35.60
2024-02-03T05:06:47.123Z,35.73
2024-02-03T05:07:18.717Z,35.34
2024-02-03T05:07:50.361Z,35.26
2024-02-03T05:08:21.916Z,35.55
2024-02-03T05:08:53.351Z,35.52
2024-02-03T05:09:24.820Z,35.08
2024-02-03T05:09:56.337Z,35.25
2024-02-03T05:10:27.821Z,35.38
2024-02-03T05:10:59.262Z,35.33
2024-02-03T05:11:30.704Z,35.46
2024-02-03T05:12:02.163Z,35.42
2024-02-03T05:12:33.697Z,34.98
2024-02-03T05:13:05.189Z,35.53
2024-02-03T05:13:36.686Z,35.68
2024-02-03T05:14:08.140Z,35.64
2024-02-03T05:14:39.584Z,35.41
2024-02-03T05:15:11.076Z,35.19
2024-02-03T05:15:42.598Z,35.53
2024-02-03T05:16:14.095Z,35.17
2024-02-03T05:16:45.531Z,35.53
2024-02-03T05:17:17.140Z,35.47
2024-02-03T05:17:48.660Z,35.26
2024-02-03T05:18:20.317Z,35.50
2024-02-03T05:18:51.942Z,35.36
2024-02-03T05:19:23.585Z,35.51
2024-02-03T05:19:55.157Z,35.74
2024-02-03T05:20:26.610Z,35.39
2024-02-03T05:20:58.079Z,35.49
2024-02-03T05:21:29.534Z,35.33
2024-02-03T05:22:00.984Z,35.38
2024-02-03T05:22:32.542Z,35.26
2024-02-03T05:23:04.042Z,35.16
2024-02-03T05:23:35.502Z,35.68
2024-02-03T05:24:06.963Z,35.23
2024-02-03T05:24:38.491Z,35.67
2024-02-03T05:25:09.962Z,35.49
2024-02-03T05:25:41.396Z,35.48
2024-02-03T05:26:12.843Z,35.42
2024-02-03T05:26:44.342Z,35.19
2024-02-03T05:27:15.976Z,35.75
2024-02-03T05:27:47.544Z,35.58
2024-02-03T05:28:19.037Z,35.61
2024-02-03T05:28:50.484Z,35.37
2024-02-03T05:29:21.949Z,35.24
2024-02-03T05:29:53.474Z,35.53
2024-02-03T05:30:24.945Z,35.71
2024-02-03T05:30:56.506Z,35.28
2024-02-03T05:31:28.022Z,35.53
2024-02-03T05:31:59.497Z,35.36
2024-02-03T05:32:31.008Z,35.53
2024-02-03T05:33:02.593Z,35.51
2024-02-03T05:33:34.284Z,35.75
2024-02-03T05:34:05.872Z,35.66
2024-02-03T05:34:37.565Z,35.32
2024-02-03T05:35:10.348Z,35.42
2024-02-03T05:35:42.921Z,35.33
2024-02-03T05:36:14.400Z,35.20
2024-02-03T05:36:45.928Z,35.45
2024-02-03T05:37:17.515Z,35.42
2024-02-03T05:37:48.964Z,35.60
2024-02-03T05:38:20.417Z,35.69
2024-02-03T05:38:51.867Z,35.33
2024-02-03T05:39:23.383Z,35.53
2024-02-03T05:39:54.952Z,35.55
2024-02-03T05:40:26.480Z,35.33
2024-02-03T05:40:58.089Z,35.37
2024-02-03T05:41:29.607Z,35.59
2024-02-03T05:42:01.076Z,35.70
2024-02-03T05:42:32.656Z,35.99
2024-02-03T05:43:04.187Z,35.78
2024-02-03T05:43:35.715Z,35.91
2024-02-03T05:44:07.156Z,35.95
2024-02-03T05:44:38.592Z,35.96
2024-02-03T05:45:10.103Z,35.62
2024-02-03T05:45:41.643Z,35.46
2024-02-03T05:46:13.133Z,35.98
2024-02-03T05:46:44.560Z,35.41
2024-02-03T05:47:16.008Z,35.41
2024-02-03T05:47:47.498Z,36.06
2024-02-03T05:48:19.081Z,35.64
2024-02-03T05:48:50.693Z,35.72
2024-02-03T05:49:22.249Z,35.76
2024-02-03T05:49:53.817Z,35.78
2024-02-03T05:50:25.348Z,36.09
2024-02-03T05:50:56.815Z,35.54
2024-02-03T05:51:28.298Z,35.94
2024-02-03T05:51:59.789Z,36.12
2024-02-03T05:52:31.235Z,36.13
2024-02-03T05:53:03.174Z,35.71
2024-02-03T05:53:35.208Z,35.79
2024-02-03T05:54:06.652Z,35.86
2024-02-03T05:54:38.129Z,36.03
2024-02-03T05:55:09.635Z,35.79
2024-02-03T05:55:41.137Z,35.92
2024-02-03T05:56:12.596Z,36.03
2024-02-03T05:56:44.042Z,35.28
2024-02-03T05:57:15.564Z,36.00
2024-02-03T05:57:47.102Z,35.92
2024-02-03T05:58:18.592Z,35.80
2024-02-03T05:59:33.172Z,36.06
2024-02-03T06:00:10.054Z,35.65
2024-02-03T06:00:41.617Z,36.00
2024-02-03T06:01:13.166Z,35.71
2024-02-03T06:01:44.694Z,36.17
2024-02-03T06:02:16.175Z,35.62
2024-02-03T06:02:47.612Z,36.11
2024-02-03T06:03:19.147Z,35.71
2024-02-03T06:03:50.738Z,35.57
2024-02-03T06:04:22.338Z,35.80
2024-02-03T06:04:53.932Z,36.26
2024-02-03T06:05:25.459Z,35.75
2024-02-03T06:06:13.551Z,35.58
2024-02-03T06:06:48.410Z,35.74
2024-02-03T06:07:20.013Z,36.18
2024-02-03T06:07:51.734Z,36.07
2024-02-03T06:08:23.311Z,35.91
2024-02-03T06:08:54.782Z,35.79
2024-02-03T06:09:26.330Z,35.98
2024-02-03T06:09:57.913Z,35.79
2024-02-03T06:10:29.363Z,36.09
2024-02-03T06:11:00.908Z,35.75
2024-02-03T06:11:32.363Z,36.13
2024-02-03T06:12:03.820Z,35.76
2024-02-03T06:12:36.032Z,35.99
2024-02-03T06:13:07.819Z,36.32
2024-02-03T06:13:39.441Z,36.06
2024-02-03T06:14:10.952Z,35.91
2024-02-03T06:14:42.484Z,36.31
2024-02-03T06:15:13.951Z,36.22
2024-02-03T06:15:45.484Z,36.09
2024-02-03T06:16:16.937Z,36.14
2024-02-03T06:16:48.427Z,35.98
2024-02-03T06:17:19.892Z,35.89
2024-02-03T06:17:51.354Z,35.91
2024-02-03T06:18:22.951Z,36.21
2024-02-03T06:18:54.592Z,36.21
2024-02-03T06:19:26.251Z,35.96
2024-02-03T06:19:57.948Z,35.78
2024-02-03T06:20:29.510Z,35.28
2024-02-03T06:21:00.956Z,35.55
2024-02-03T06:21:32.424Z,35.78
2024-02-03T06:22:03.878Z,36.25
2024-02-03T06:22:35.319Z,35.47
2024-02-03T06:23:06.774Z,35.63
2024-02-03T06:23:38.409Z,36.00
2024-02-03T06:24:09.914Z,35.79
2024-02-03T06:24:41.434Z,35.44
2024-02-03T06:25:12.935Z,35.91
2024-02-03T06:25:44.372Z,35.79
2024-02-03T06:26:15.817Z,35.78
2024-02-03T06:26:47.264Z,35.71
2024-02-03T06:27:18.789Z,35.63
2024-02-03T06:27:50.335Z,35.49
2024-02-03T06:28:21.972Z,35.59
2024-02-03T06:28:53.568Z,35.48
2024-02-03T06:29:25.132Z,35.98
2024-02-03T06:29:56.580Z,36.04
2024-02-03T06:30:28.042Z,36.22
2024-02-03T06:30:59.529Z,36.07
2024-02-03T06:31:30.994Z,35.86
2024-02-03T06:32:02.438Z,35.75
2024-02-03T06:32:33.980Z,35.85
2024-02-03T06:33:05.550Z,35.53
2024-02-03T06:33:37.168Z,36.16
2024-02-03T06:34:08.841Z,35.63
2024-02-03T06:34:40.527Z,35.67
2024-02-03T06:35:12.050Z,35.80
2024-02-03T06:35:43.501Z,36.09
2024-02-03T06:36:14.973Z,35.98
2024-02-03T06:36:46.493Z,35.98
2024-02-03T06:37:17.952Z,35.91
2024-02-03T06:37:49.446Z,36.00
2024-02-03T06:38:20.953Z,36.13
2024-02-03T06:38:52.390Z,35.87
2024-02-03T06:39:23.995Z,35.96
2024-02-03T06:39:55.529Z,35.98
2024-02-03T06:40:26.999Z,36.07
2024-02-03T06:40:58.490Z,36.27
2024-02-03T06:41:29.926Z,36.10
2024-02-03T06:42:01.411Z,35.78
2024-02-03T06:42:33.002Z,35.82
2024-02-03T06:43:04.477Z,35.75
2024-02-03T06:43:35.925Z,36.13
2024-02-03T06:44:07.382Z,36.14
2024-02-03T06:44:38.825Z,36.26
2024-02-03T06:45:10.294Z,35.99
2024-02-03T06:45:41.792Z,36.10
2024-02-03T06:46:13.233Z,35.72
2024-02-03T06:46:44.669Z,36.30
2024-02-03T06:47:16.164Z,36.14